createdAt,value
2016-08-15T00:02:04.366Z,44.2
2016-08-15T00:07:03.470Z,44.0
2016-08-15T00:12:03.730Z,44.2
2016-08-15T00:17:04.312Z,44.2
2016-08-15T00:22:03.950Z,44.4
2016-08-15T00:27:03.612Z,44.1
2016-08-15T00:32:04.025Z,44.1
2016-08-15T00:37:03.460Z,44.2
2016-08-15T00:42:04.080Z,44.2
2016-08-15T00:47:04.568Z,44.3
2016-08-15T00:52:04.077Z,44.2
2016-08-15T00:57:03.635Z,44.2
2016-08-15T01:02:04.227Z,44.2
2016-08-15T01:07:04.427Z,44.3
2016-08-15T01:12:04.003Z,44.3
2016-08-15T01:17:03.986Z,44.3
2016-08-15T01:22:03.650Z,44.2
2016-08-15T01:27:04.347Z,44.3
2016-08-15T01:32:04.220Z,44.4
2016-08-15T01:37:03.741Z,44.3
2016-08-15T01:42:03.685Z,44.3
2016-08-15T01:47:03.566Z,44.4
2016-08-15T01:52:04.308Z,44.4
2016-08-15T01:57:03.834Z,44.3
2016-08-15T02:02:03.693Z,44.3
2016-08-15T02:07:03.757Z,44.4
2016-08-15T02:12:03.600Z,44.3
2016-08-15T02:17:04.562Z,44.5
2016-08-15T02:22:04.431Z,44.4
2016-08-15T02:27:03.583Z,44.5
2016-08-15T02:32:03.466Z,44.4
2016-08-15T02:37:04.242Z,44.4
2016-08-15T02:42:04.358Z,44.4
2016-08-15T02:47:03.810Z,44.4
2016-08-15T02:52:04.026Z,44.3
2016-08-15T02:57:04.202Z,44.3
2016-08-15T03:02:03.571Z,44.3
2016-08-15T03:07:04.057Z,44.4
2016-08-15T03:12:04.334Z,44.4
2016-08-15T03:17:03.885Z,44.4
2016-08-15T03:22:04.140Z,44.4
2016-08-15T03:27:04.405Z,44.4
2016-08-15T03:32:03.643Z,44.4
2016-08-15T03:37:04.201Z,44.5
2016-08-15T03:42:04.165Z,44.4
2016-08-15T03:47:15.208Z,44.4
2016-08-15T03:52:04.062Z,44.3
2016-08-15T03:57:03.843Z,44.3
2016-08-15T04:02:30.130Z,44.2
2016-08-15T04:07:03.605Z,44.2
2016-08-15T04:12:03.521Z,44.3
2016-08-15T04:17:34.164Z,44.2
2016-08-15T04:22:03.748Z,44.3
2016-08-15T04:27:04.156Z,44.3
2016-08-15T04:32:31.678Z,44.3
2016-08-15T04:37:03.610Z,44.3
2016-08-15T04:42:03.909Z,44.3
2016-08-15T04:47:33.006Z,44.2
2016-08-15T04:52:03.614Z,44.1
2016-08-15T04:57:03.544Z,44.2
2016-08-15T05:02:31.846Z,44.1
2016-08-15T05:07:04.109Z,44.1
2016-08-15T05:12:03.518Z,44.0
2016-08-15T05:17:31.742Z,43.9
2016-08-15T05:22:04.180Z,43.8
2016-08-15T05:27:04.088Z,43.8
2016-08-15T05:32:31.323Z,43.8
2016-08-15T05:37:04.382Z,43.8
2016-08-15T05:42:03.522Z,43.6
2016-08-15T05:47:31.540Z,43.7
2016-08-15T05:52:03.628Z,43.7
2016-08-15T05:57:03.884Z,43.7
2016-08-15T06:02:31.193Z,43.8
2016-08-15T06:07:03.732Z,43.7
2016-08-15T06:12:04.329Z,43.8
2016-08-15T06:17:32.099Z,43.7
2016-08-15T06:22:04.195Z,44.0
2016-08-15T06:27:04.188Z,43.9
2016-08-15T06:32:32.872Z,43.9
2016-08-15T06:37:03.909Z,43.8
2016-08-15T06:42:03.792Z,43.8
2016-08-15T06:47:32.764Z,43.8
2016-08-15T06:52:03.989Z,43.6
2016-08-15T06:57:04.235Z,43.7
2016-08-15T07:02:33.713Z,43.6
2016-08-15T07:07:03.480Z,43.6
2016-08-15T07:12:04.215Z,43.6
2016-08-15T07:17:37.764Z,43.7
2016-08-15T07:22:04.246Z,43.7
2016-08-15T07:27:03.913Z,43.8
2016-08-15T07:32:30.834Z,44.0
2016-08-15T07:37:04.334Z,43.9
2016-08-15T07:42:04.046Z,43.9
2016-08-15T07:47:38.013Z,43.9
2016-08-15T07:52:03.559Z,44.0
2016-08-15T07:57:03.246Z,43.9
2016-08-15T08:02:30.829Z,43.9
2016-08-15T08:07:03.964Z,44.1
2016-08-15T08:12:04.136Z,44.2
2016-08-15T08:17:37.077Z,44.2
2016-08-15T08:22:04.215Z,44.1
2016-08-15T08:27:04.104Z,44.4
2016-08-15T08:32:23.693Z,44.3
2016-08-15T08:37:03.550Z,44.2
2016-08-15T08:42:04.043Z,44.2
2016-08-15T08:47:29.514Z,44.6
2016-08-15T08:52:04.112Z,44.6
2016-08-15T08:57:03.878Z,44.5
2016-08-15T09:02:34.808Z,45.1
2016-08-15T09:07:03.503Z,44.9
2016-08-15T09:12:04.169Z,45.1
2016-08-15T09:17:42.413Z,45.0
2016-08-15T09:22:03.978Z,45.3
2016-08-15T09:27:04.135Z,45.3
2016-08-15T09:32:43.267Z,45.3
2016-08-15T09:37:04.138Z,45.4
2016-08-15T09:42:03.610Z,45.2
2016-08-15T09:47:32.298Z,45.6
2016-08-15T09:52:03.935Z,45.6
2016-08-15T09:57:04.139Z,45.6
2016-08-15T10:02:42.759Z,45.6
2016-08-15T10:07:04.244Z,46.0
2016-08-15T10:12:03.657Z,45.8
2016-08-15T10:17:32.190Z,45.9
2016-08-15T10:22:04.245Z,45.8
2016-08-15T10:27:04.354Z,45.6
2016-08-15T10:32:36.775Z,46.8
2016-08-15T10:37:03.762Z,45.9
2016-08-15T10:42:03.669Z,45.9
2016-08-15T10:47:32.180Z,45.9
2016-08-15T10:52:03.832Z,45.9
2016-08-15T10:57:03.547Z,45.6
2016-08-15T11:02:36.562Z,46.0
2016-08-15T11:07:03.713Z,46.1
2016-08-15T11:12:03.669Z,45.5
2016-08-15T11:17:32.617Z,45.8
2016-08-15T11:22:03.910Z,45.9
2016-08-15T11:27:04.241Z,46.1
2016-08-15T11:32:40.663Z,47.1
2016-08-15T11:37:03.572Z,45.7
2016-08-15T11:42:04.341Z,45.7
2016-08-15T11:47:34.991Z,45.2
2016-08-15T11:52:04.175Z,46.1
2016-08-15T11:57:03.712Z,46.0
2016-08-15T12:02:31.138Z,46.2
2016-08-15T12:07:03.694Z,46.6
2016-08-15T12:12:03.654Z,47.0
2016-08-15T12:17:39.615Z,46.5
2016-08-15T12:22:03.629Z,46.3
2016-08-15T12:27:04.271Z,45.6
2016-08-15T12:32:36.540Z,45.8
2016-08-15T12:37:03.497Z,45.7
2016-08-15T12:42:04.268Z,45.0
2016-08-15T12:47:32.267Z,46.0
2016-08-15T12:52:03.936Z,46.1
2016-08-15T12:57:03.867Z,45.7
2016-08-15T13:02:32.413Z,45.6
2016-08-15T13:07:03.823Z,46.2
2016-08-15T13:12:03.562Z,45.8
2016-08-15T13:17:29.073Z,45.7
2016-08-15T13:22:03.643Z,46.5
2016-08-15T13:27:04.351Z,46.4
2016-08-15T13:32:31.309Z,46.4
2016-08-15T13:37:03.663Z,47.0
2016-08-15T13:42:04.002Z,46.7
2016-08-15T13:47:35.561Z,46.7
2016-08-15T13:52:04.258Z,46.1
2016-08-15T13:57:03.585Z,45.2
2016-08-15T20:02:04.213Z,44.8
2016-08-15T20:07:03.960Z,44.8
2016-08-15T20:12:03.998Z,44.8
2016-08-15T20:17:03.613Z,44.8
2016-08-15T20:22:03.697Z,44.7
2016-08-15T20:27:06.078Z,44.7
2016-08-15T20:32:04.133Z,44.7
2016-08-15T20:37:04.012Z,44.6
2016-08-15T20:42:03.966Z,44.6
2016-08-15T20:47:04.054Z,45.1
2016-08-15T20:52:04.180Z,44.8
2016-08-15T20:57:03.439Z,44.8
2016-08-15T21:02:04.027Z,44.6
2016-08-15T21:07:03.900Z,44.7
2016-08-15T21:12:03.790Z,44.6
2016-08-15T21:17:04.099Z,44.5
2016-08-15T21:22:04.040Z,44.5
2016-08-15T21:27:04.198Z,44.5
2016-08-15T21:32:07.568Z,44.5
2016-08-15T21:37:05.524Z,44.5
2016-08-15T21:42:03.500Z,44.5
2016-08-15T21:47:05.386Z,44.6
2016-08-15T21:52:03.770Z,44.5
2016-08-15T21:57:03.906Z,44.4
2016-08-15T22:02:05.011Z,44.4
2016-08-15T22:07:03.816Z,44.4
2016-08-15T22:12:04.357Z,44.4
2016-08-15T22:22:04.456Z,43.8
2016-08-15T22:27:03.662Z,44.1
2016-08-15T22:32:04.160Z,44.1
2016-08-15T22:37:04.167Z,44.0
2016-08-15T22:42:03.448Z,44.1
2016-08-15T22:47:03.747Z,44.1
2016-08-15T22:52:03.946Z,44.2
2016-08-15T22:57:04.186Z,44.2
2016-08-15T23:02:03.441Z,44.2
2016-08-15T23:07:03.692Z,44.2
2016-08-15T23:12:04.083Z,44.3
2016-08-15T23:17:04.392Z,44.3
2016-08-15T23:22:03.635Z,44.4
2016-08-15T23:27:03.946Z,44.4
2016-08-15T23:32:04.101Z,44.4
2016-08-15T23:37:03.529Z,44.4
2016-08-15T23:42:03.679Z,44.4
2016-08-15T23:47:04.151Z,44.4
2016-08-15T23:52:04.152Z,44.4
2016-08-15T23:57:04.199Z,44.4
